Terminal Aerodrome Forecast
Issued by NWS St Louis, MO

Home | Current Version | Previous Version | Text Only | Print | Product List | Glossary On
Versions: 1 2 3 4 5 6 7 8 9 10 11 12 13 14 15 16 17 18 19 20 21 22 23 24 25 26 27 28 29 30 31 32 33
426
FTUS43 KLSX 261643 AAA
TAFSTL
TAF AMD
KSTL 261643Z 2617/2718 24010KT 5SM -SHRA VCTS OVC030CB
     FM262100 01009KT 3SM -SHRA VCTS OVC025CB
     FM270100 33008KT P6SM VCSH OVC015
     FM270700 29012G19KT P6SM OVC010
     FM271200 28008KT P6SM OVC015=

USA.gov is the U.S. government's official web portal to all federal, state and local government web resources and services.